Latest Weather Observations for Wyndham Airport

IDD60801

Issued at 4:21 pm CST Friday 3 December 2021 (issued every 10 minutes, with the page automatically refreshed every 10 minutes)

About weather observations | Map of weather stations | Latest weather observations for NT | Other Formats
Station Details ID: 001006 Name: WYNDHAM AERO Lat: -15.51 Lon: 128.15 Height: 3.8 m
Data from the previous 72 hours. | See also: Recent months at Wyndham Airport
Date/Time
CST
Temp
°C
App
Temp
°C
Dew
Point
°C
Rel
Hum
%
Delta-T
°C
Wind Press
QNH
hPa
Press
MSL
hPa
Rain since
9am
mm
Dir  Spd
km/h
Gust
km/h
Spd
kts
Gust
kts
03/04:00pm 41.5 41.3 19.8 28 14.7 N 20 35 11 19 1003.7 1003.7 0.0
03/03:30pm 41.7 39.4 14.1 19 17.4 ENE 19 30 10 16 1003.8 1003.8 0.0
03/03:00pm 42.4 41.1 14.7 20 17.6 E 15 24 8 13 1004.0 1004.0 0.0
03/02:30pm 42.5 39.9 14.8 20 17.7 NE 22 33 12 18 1004.5 1004.5 0.0
03/02:00pm 42.1 41.0 15.2 20 17.2 ENE 15 26 8 14 1004.9 1004.9 0.0
03/01:30pm 41.5 41.6 15.5 22 16.7 E 9 20 5 11 1005.5 1005.5 0.0
03/01:00pm 40.6 41.5 18.5 27 14.7 WNW 11 20 6 11 1006.1 1006.1 0.0
03/12:30pm 40.4 42.2 19.5 30 14.1 W 9 15 5 8 1006.6 1006.6 0.0
03/12:00pm 40.5 41.4 18.4 27 14.6 WSW 11 15 6 8 1007.3 1007.3 0.0
03/11:30am 39.3 39.5 16.8 26 14.6 SW 11 17 6 9 1007.8 1007.8 0.0
03/11:00am 37.7 39.6 20.5 36 11.6 SW 11 17 6 9 1008.2 1008.2 0.0
03/10:30am 36.5 39.1 21.9 42 10.0 SW 11 13 6 7 1008.4 1008.4 0.0
03/10:00am 36.5 40.6 23.0 45 9.4 SSW 6 9 3 5 1008.6 1008.6 0.0
03/09:30am 35.0 38.4 22.7 49 8.5 SSW 9 11 5 6 1008.4 1008.4 0.0
03/09:00am 33.9 38.9 24.5 58 6.6 SE 6 9 3 5 1008.2 1008.2 0.0
03/08:30am 32.7 37.4 25.0 64 5.4 SE 9 11 5 6 1008.0 1008.0 0.0
03/08:00am 31.1 35.8 25.0 70 4.3 SE 9 13 5 7 1007.8 1007.8 0.0
03/07:30am 30.9 35.3 25.0 71 4.2 SE 11 15 6 8 1007.6 1007.6 0.0
03/07:00am 30.1 35.2 25.6 77 3.2 E 9 11 5 6 1007.3 1007.3 0.0
03/06:30am 28.6 33.5 25.2 82 2.4 E 9 9 5 5 1006.9 1006.9 0.0
03/06:00am 28.4 33.5 25.0 82 2.4 E 7 9 4 5 1006.6 1006.6 0.0
03/05:30am 28.4 33.7 25.0 82 2.4 E 6 7 3 4 1006.4 1006.4 0.0
03/05:00am 28.9 33.6 24.9 79 2.8 E 9 9 5 5 1006.0 1006.0 0.0
03/04:30am 29.0 33.9 25.2 80 2.7 E 9 9 5 5 1005.9 1005.9 0.0
03/04:00am 29.3 34.6 25.3 79 2.8 E 7 9 4 5 1005.8 1005.8 0.0
03/03:30am 29.3 34.2 25.3 79 2.8 E 9 11 5 6 1005.8 1005.8 0.0
03/03:00am 29.5 34.4 25.3 78 3.0 E 9 11 5 6 1005.9 1005.9 0.0
03/02:30am 30.2 33.8 25.0 73 3.7 ESE 15 19 8 10 1006.1 1006.1 0.0
03/02:00am 30.3 33.6 25.1 73 3.7 ESE 17 20 9 11 1006.4 1006.4 0.0
03/01:30am 30.4 33.2 25.2 74 3.7 ESE 20 26 11 14 1006.7 1006.7 0.0
03/01:00am 30.6 33.4 25.2 73 3.8 SE 20 24 11 13 1006.9 1006.9 0.0
03/12:30am 30.9 34.3 25.3 72 4.0 SE 17 20 9 11 1007.2 1007.2 0.0
03/12:00am 31.1 35.1 25.0 70 4.3 ESE 13 15 7 8 1007.4 1007.4 0.0
 
Date/Time
CST
Temp
°C
App
Temp
°C
Dew
Point
°C
Rel
Hum
%
Delta-T
°C
Wind Press
QNH
hPa
Press
MSL
hPa
Rain since
9am
mm
Dir  Spd
km/h
Gust
km/h
Spd
kts
Gust
kts
02/11:30pm 31.9 35.0 24.2 63 5.4 ESE 15 20 8 11 1007.5 1007.5 0.0
02/11:00pm 32.9 36.2 21.4 50 7.8 NE 6 11 3 6 1007.5 1007.5 0.0
02/10:30pm 33.7 37.0 21.5 49 8.3 ESE 6 9 3 5 1007.2 1007.2 0.0
02/10:00pm 33.8 37.0 21.2 47 8.5 NE 6 11 3 6 1007.1 1007.1 0.0
02/09:30pm 33.8 37.3 21.9 49 8.1 SSW 6 9 3 5 1006.8 1006.8 0.0
02/09:00pm 33.4 37.6 23.4 55 6.9 SE 7 11 4 6 1006.8 1006.8 0.0
02/08:30pm 33.4 33.8 23.7 56 6.8 N 28 39 15 21 1006.1 1006.1 0.0
02/08:00pm 33.2 33.0 24.4 60 6.2 NNE 33 48 18 26 1005.6 1005.6 0.0
02/07:30pm 33.5 33.3 24.4 59 6.4 NNE 33 43 18 23 1005.0 1005.0 0.0
02/07:00pm 34.2 33.9 24.2 56 7.0 NNE 33 46 18 25 1004.6 1004.6 0.0
02/06:30pm 35.2 35.4 25.1 56 7.2 NNE 33 43 18 23 1004.2 1004.2 0.0
02/06:00pm 37.3 36.7 23.4 45 9.7 NNE 32 44 17 24 1003.7 1003.7 0.0
02/05:47pm 38.0 38.4 22.4 40 10.8 NNE 24 46 13 25 1003.5 1003.5 0.0
02/05:30pm 42.4 39.8 9.3 14 19.6 ESE 13 32 7 17 1003.3 1003.3 0.0
02/05:00pm 43.1 39.6 8.8 13 20.2 SE 17 24 9 13 1003.2 1003.2 0.0
02/04:30pm 42.8 38.9 9.6 14 19.8 ESE 20 32 11 17 1003.2 1003.2 0.0
02/04:00pm 42.7 40.1 10.6 15 19.3 ESE 15 26 8 14 1003.6 1003.6 0.0
02/03:30pm 43.2 41.1 11.0 15 19.6 SSE 13 22 7 12 1003.8 1003.8 0.0
02/03:00pm 43.2 39.9 11.0 15 19.5 ESE 19 30 10 16 1004.2 1004.2 0.0
02/02:30pm 42.8 39.7 11.6 16 19.1 SE 19 28 10 15 1004.4 1004.4 0.0
02/02:00pm 42.8 39.1 9.6 14 19.7 SE 19 33 10 18 1004.8 1004.8 0.0
02/01:30pm 43.3 40.0 11.0 15 19.6 ESE 19 30 10 16 1005.1 1005.1 0.0
02/01:00pm 42.9 40.2 11.7 16 19.1 SE 17 26 9 14 1005.5 1005.5 0.0
02/12:30pm 41.2 40.2 14.5 21 16.9 S 13 28 7 15 1006.0 1006.0 0.0
02/12:00pm 41.5 39.5 14.0 20 17.3 SSW 17 24 9 13 1006.4 1006.4 0.0
02/11:30am 39.9 39.4 14.8 22 15.9 WSW 11 15 6 8 1006.9 1006.9 0.0
02/11:00am 39.8 39.1 17.3 27 14.7 S 17 24 9 13 1007.3 1007.3 0.0
02/10:30am 39.0 39.2 17.7 28 14.0 SW 13 19 7 10 1007.6 1007.6 0.0
02/10:00am 37.6 36.9 18.6 33 12.5 WSW 20 30 11 16 1007.8 1007.8 0.0
02/09:30am 36.4 36.6 20.2 38 10.9 WSW 19 26 10 14 1008.1 1008.1 0.0
02/09:00am 35.1 35.1 21.0 43 9.5 WSW 22 28 12 15 1008.1 1008.1 0.0
02/08:30am 33.8 34.3 21.9 49 8.1 WSW 22 28 12 15 1008.1 1008.1 0.0
02/08:00am 32.8 33.7 21.6 51 7.6 W 19 30 10 16 1008.0 1008.0 0.0
02/07:30am 31.9 34.2 22.0 55 6.7 W 13 15 7 8 1007.9 1007.9 0.0
02/07:00am 30.8 33.1 22.1 59 5.9 W 13 17 7 9 1007.5 1007.5 0.0
02/06:30am 27.7 33.1 23.9 80 2.6 ESE 2 9 1 5 1007.2 1007.2 0.0
02/06:00am 27.9 32.6 24.3 81 2.5 ESE 7 9 4 5 1007.0 1007.0 0.0
02/05:30am 28.7 34.3 23.6 74 3.5 CALM 0 0 0 0 1006.7 1006.7 0.0
02/05:00am 28.6 34.7 24.4 78 2.9 CALM 0 0 0 0 1006.4 1006.4 0.0
02/04:30am 28.6 34.9 24.8 80 2.7 CALM 0 0 0 0 1006.1 1006.1 0.0
02/04:00am 28.6 34.9 24.8 80 2.7 CALM 0 0 0 0 1006.0 1006.0 0.0
02/03:30am 28.6 33.5 24.6 79 2.8 ESE 7 9 4 5 1006.0 1006.0 0.0
02/03:00am 28.7 33.0 24.3 77 3.1 ESE 9 9 5 5 1005.9 1005.9 0.0
02/02:30am 28.4 32.0 23.8 76 3.2 ESE 11 13 6 7 1006.0 1006.0 0.0
02/02:00am 29.0 32.8 24.1 75 3.4 ENE 11 13 6 7 1006.1 1006.1 0.0
02/01:30am 29.5 32.2 24.1 72 3.8 ESE 17 20 9 11 1006.4 1006.4 0.0
02/01:00am 29.8 32.5 24.2 72 3.9 SE 17 19 9 10 1006.5 1006.5 0.0
02/12:30am 29.7 32.7 23.4 69 4.3 ESE 13 17 7 9 1006.7 1006.7 0.0
02/12:00am 30.9 34.6 22.5 61 5.7 E 7 11 4 6 1006.6 1006.6 0.0
 
Date/Time
CST
Temp
°C
App
Temp
°C
Dew
Point
°C
Rel
Hum
%
Delta-T
°C
Wind Press
QNH
hPa
Press
MSL
hPa
Rain since
9am
mm
Dir  Spd
km/h
Gust
km/h
Spd
kts
Gust
kts
01/11:30pm 31.8 34.5 21.3 53 7.1 E 9 13 5 7 1006.9 1006.9 0.0
01/11:00pm 33.1 35.3 19.6 45 8.9 N 7 13 4 7 1007.1 1007.1 0.0
01/10:30pm 33.4 34.8 19.5 44 9.2 NNW 11 15 6 8 1007.1 1007.1 0.0
01/10:00pm 33.1 36.5 20.9 48 8.2 SE 4 7 2 4 1006.9 1006.9 0.0
01/09:30pm 33.6 34.8 21.4 48 8.3 NNE 17 26 9 14 1006.6 1006.6 0.0
01/09:00pm 34.0 33.9 20.0 43 9.3 N 20 30 11 16 1006.2 1006.2 0.0
01/08:30pm 34.1 33.1 19.7 42 9.6 N 24 37 13 20 1005.6 1005.6 0.0
01/08:00pm 34.6 31.0 17.3 35 11.1 N 32 41 17 22 1004.9 1004.9 0.0
01/07:30pm 34.8 33.4 21.1 44 9.3 N 30 41 16 22 1004.4 1004.4 0.0
01/07:00pm 36.6 33.0 17.2 31 12.5 NNE 32 39 17 21 1003.9 1003.9 0.0
01/06:30pm 37.7 34.0 16.1 28 13.8 NNE 30 41 16 22 1003.5 1003.5 0.0
01/06:00pm 39.4 37.2 16.9 26 14.6 N 24 33 13 18 1003.0 1003.0 0.0
01/05:30pm 40.2 37.4 16.4 25 15.4 NNE 26 35 14 19 1002.9 1002.9 0.0
01/05:00pm 42.4 38.4 8.2 13 19.9 ESE 19 26 10 14 1002.7 1002.7 0.0
01/04:30pm 42.3 38.6 8.1 13 19.9 E 17 28 9 15 1002.8 1002.8 0.0
01/04:00pm 42.2 39.8 6.9 12 20.1 S 9 13 5 7 1002.9 1002.9 0.0
01/03:30pm 42.3 39.4 8.1 13 19.9 SE 13 24 7 13 1003.3 1003.3 0.0
01/03:00pm 41.3 38.7 9.5 15 18.7 E 13 20 7 11 1003.8 1003.8 0.0
01/02:30pm 42.1 40.5 12.9 18 18.1 NNW 13 22 7 12 1004.0 1004.0 0.0
01/02:00pm 41.4 40.6 13.9 20 17.2 WNW 11 22 6 12 1004.6 1004.6 0.0
01/01:30pm 41.8 40.7 14.2 19 17.4 WNW 13 20 7 11 1005.2 1005.2 0.0
01/01:00pm 40.3 39.0 13.8 21 16.5 WNW 13 22 7 12 1005.8 1005.8 0.0
01/12:30pm 40.7 39.2 14.1 21 16.7 WSW 15 26 8 14 1006.3 1006.3 0.0
01/12:00pm 40.0 38.8 16.2 24 15.3 W 17 32 9 17 1006.8 1006.8 0.0
01/11:30am 38.7 39.9 19.0 31 13.1 SW 11 20 6 11 1007.4 1007.4 0.0
01/11:00am 37.6 39.4 19.5 34 12.1 WSW 9 17 5 9 1007.6 1007.6 0.0
01/10:30am 36.9 38.4 20.6 38 11.0 W 13 22 7 12 1007.9 1007.9 0.0
01/10:00am 35.8 36.5 20.5 41 10.3 W 17 20 9 11 1008.2 1008.2 0.0
01/09:30am 35.1 35.7 20.2 41 10.0 W 17 20 9 11 1008.2 1008.2 0.0
01/09:00am 34.3 35.5 20.7 45 9.1 W 15 20 8 11 1008.2 1008.2 0.0
01/08:30am 33.5 34.1 20.3 46 8.8 W 17 22 9 12 1008.0 1008.0 0.0
01/08:00am 32.3 35.4 21.5 53 7.3 WNW 7 11 4 6 1007.7 1007.7 0.0
01/07:30am 30.8 34.2 21.6 58 6.2 SSW 6 7 3 4 1007.4 1007.4 0.0
01/07:00am 30.0 32.2 20.3 56 6.4 SSW 9 11 5 6 1007.0 1007.0 0.0
01/06:30am 28.5 31.1 20.0 60 5.6 SSW 6 9 3 5 1006.5 1006.5 0.0
01/06:00am 28.2 29.7 18.9 57 6.0 SSW 9 11 5 6 1006.2 1006.2 0.0
01/05:30am 28.0 29.4 17.8 54 6.5 SSW 7 7 4 4 1005.8 1005.8 0.0
01/05:00am 27.3 28.6 17.2 54 6.3 SSW 6 7 3 4 1005.7 1005.7 0.0
01/04:30am 27.8 28.9 16.7 50 6.9 SSW 6 7 3 4 1005.5 1005.5 0.0
01/04:00am 29.1 31.3 16.6 46 7.8 CALM 0 0 0 0 1005.3 1005.3 0.0
01/03:30am 28.6 30.5 16.8 48 7.4 SSW 2 6 1 3 1005.1 1005.1 0.0
01/03:00am 29.0 31.2 16.5 46 7.8 CALM 0 0 0 0 1005.2 1005.2 0.0
01/02:30am 28.9 30.9 16.1 46 7.9 CALM 0 0 0 0 1005.2 1005.2 0.0
01/02:00am 30.4 31.1 16.0 41 9.0 SSW 7 11 4 6 1005.2 1005.2 0.0
01/01:30am 30.7 31.5 15.9 40 9.2 WNW 6 7 3 4 1005.5 1005.5 0.0
01/01:00am 31.8 31.8 15.3 37 10.2 WNW 9 13 5 7 1005.7 1005.7 0.0
01/12:30am 32.0 31.7 15.5 37 10.3 WSW 11 13 6 7 1005.9 1005.9 0.0
01/12:00am 33.7 32.0 14.7 32 11.7 WNW 17 19 9 10 1006.2 1006.2 0.0
 
Date/Time
CST
Temp
°C
App
Temp
°C
Dew
Point
°C
Rel
Hum
%
Delta-T
°C
Wind Press
QNH
hPa
Press
MSL
hPa
Rain since
9am
mm
Dir  Spd
km/h
Gust
km/h
Spd
kts
Gust
kts
30/11:30pm 34.1 31.9 16.0 34 11.4 NW 22 32 12 17 1006.2 1006.2 0.0
30/11:00pm 33.9 32.6 14.9 32 11.8 NW 15 20 8 11 1006.1 1006.1 0.0
30/10:30pm 33.8 31.9 15.3 33 11.5 NNW 19 26 10 14 1006.1 1006.1 0.0
30/10:00pm 34.6 32.1 13.4 27 12.9 N 19 30 10 16 1006.1 1006.1 0.0
30/09:30pm 34.6 32.6 15.5 32 12.0 N 20 24 11 13 1005.7 1005.7 0.0
30/09:00pm 34.7 33.7 17.9 37 10.9 N 20 30 11 16 1005.5 1005.5 0.0
30/08:30pm 35.5 33.6 15.8 31 12.5 NNE 20 30 11 16 1005.0 1005.0 0.0
30/08:00pm 36.0 33.5 16.2 30 12.6 NNE 24 30 13 16 1004.6 1004.6 0.0
30/07:30pm 36.7 34.1 15.8 29 13.3 NNE 24 37 13 20 1004.2 1004.2 0.0
30/07:00pm 37.5 35.9 15.9 28 13.7 NNE 19 26 10 14 1003.5 1003.5 0.0
30/06:30pm 39.8 37.2 9.2 16 17.9 ESE 13 19 7 10 1003.1 1003.1 0.0
30/06:00pm 40.0 38.0 10.3 17 17.6 ESE 11 20 6 11 1003.1 1003.1 0.0

Other formats

Comma delimited format used in spreadsheet applications
http://www.bom.gov.au/fwo/IDD60801/IDD60801.95214.axf

JavaScript Object Notation format (JSON) in row-major order
http://www.bom.gov.au/fwo/IDD60801/IDD60801.95214.json

Data quality

Most of these data are generated automatically and are frequently updated. Quality checks on data are not normally performed. It is possible for incorrect values to appear. Refer to information at About Latest Weather Observations and please check the disclaimer before using these data.